Time;durP1;ratioP1;P1;durP2;ratioP2;P2;SDS_P1;SDS_P2;PMS_P1;PMS_P2;Temp;Humidity;BMP_temperature;BMP_pressure;BME280_temperature;BME280_humidity;BME280_pressure;Samples;Min_cycle;Max_cycle;Signal;HPM_P1;HPM_P2
2022/12/10 00:01:39;;;;;;;79.47;25.23;;;;;;;8.08;50.15;100886.69;5128327;27;20509;-71
2022/12/10 00:04:05;;;;;;;73.93;23.60;;;;;;;8.35;50.38;100891.03;5114664;27;20055;-71
2022/12/10 00:06:33;;;;;;;78.53;25.40;;;;;;;7.18;52.30;100896.81;5133063;27;20054;-72
2022/12/10 00:08:59;;;;;;;96.57;28.97;;;;;;;7.17;52.38;100889.91;5114947;27;20023;-71
2022/12/10 00:11:25;;;;;;;106.53;30.00;;;;;;;6.76;55.96;100898.31;5115569;27;20482;-71
2022/12/10 00:13:52;;;;;;;103.53;29.10;;;;;;;7.66;52.77;100893.56;5116036;27;20107;-72
2022/12/10 00:16:19;;;;;;;111.40;30.10;;;;;;;7.70;52.78;100900.50;5113569;27;20015;-71
2022/12/10 00:18:45;;;;;;;106.73;29.97;;;;;;;8.32;50.59;100894.53;5114051;27;20031;-71
2022/12/10 00:21:17;;;;;;;106.70;31.10;;;;;;;7.73;51.08;100895.28;5132209;27;20027;-71
2022/12/10 00:23:43;;;;;;;121.18;32.13;;;;;;;7.98;50.83;100891.00;5116170;27;20393;-72
2022/12/10 00:26:15;;;;;;;118.80;31.60;;;;;;;8.31;49.91;100894.50;5133588;27;20108;-72
2022/12/10 00:28:42;;;;;;;126.38;35.53;;;;;;;8.30;50.64;100896.25;5112721;27;20019;-72
2022/12/10 00:31:11;;;;;;;121.60;31.97;;;;;;;8.74;49.48;100904.09;5114882;27;20442;-72
2022/12/10 00:33:37;;;;;;;121.73;32.50;;;;;;;8.83;49.08;100898.84;5113637;27;20038;-72
2022/12/10 00:36:05;;;;;;;125.07;34.60;;;;;;;7.80;51.75;100900.53;5114841;27;20126;-72
2022/12/10 00:38:30;;;;;;;128.07;33.67;;;;;;;8.55;49.56;100908.44;5112967;27;20035;-71
2022/12/10 00:40:56;;;;;;;121.37;31.10;;;;;;;7.82;51.94;100905.75;5114030;27;20088;-72
2022/12/10 00:43:21;;;;;;;123.93;33.10;;;;;;;7.78;51.42;100902.25;5114665;27;20037;-72
2022/12/10 00:45:47;;;;;;;118.40;32.70;;;;;;;7.10;53.82;100904.59;5112101;27;20080;-72
2022/12/10 00:48:12;;;;;;;121.47;34.50;;;;;;;7.50;53.16;100898.72;5113393;27;20035;-72
2022/12/10 00:50:37;;;;;;;116.07;32.90;;;;;;;7.43;53.58;100907.31;5114299;27;20439;-72
2022/12/10 00:53:03;;;;;;;117.73;34.50;;;;;;;7.69;52.23;100894.41;5133000;27;20388;-73
2022/12/10 00:55:28;;;;;;;116.67;34.40;;;;;;;7.85;52.00;100902.28;5114293;27;20583;-71
2022/12/10 00:57:53;;;;;;;117.43;33.40;;;;;;;7.65;51.72;100903.06;5112556;27;20023;-71
2022/12/10 01:00:19;;;;;;;110.60;31.37;;;;;;;8.17;50.86;100907.53;5133350;27;20055;-72
2022/12/10 01:02:44;;;;;;;125.67;34.27;;;;;;;7.50;52.54;100914.31;5133804;27;20027;-72
2022/12/10 01:05:10;;;;;;;109.73;32.27;;;;;;;8.20;50.83;100911.88;5114306;27;20106;-71
2022/12/10 01:07:35;;;;;;;114.47;32.53;;;;;;;8.62;49.89;100916.25;5112786;27;20038;-72
2022/12/10 01:10:01;;;;;;;131.97;37.63;;;;;;;8.74;49.01;100914.53;5112428;27;20030;-72
2022/12/10 01:12:26;;;;;;;124.87;36.23;;;;;;;7.56;51.85;100929.94;5113559;27;20096;-72
2022/12/10 01:14:52;;;;;;;113.80;33.30;;;;;;;7.67;52.41;100926.50;5132513;27;20085;-72
2022/12/10 01:17:17;;;;;;;120.50;33.30;;;;;;;7.73;51.58;100926.53;5114610;27;20035;-72
2022/12/10 01:19:42;;;;;;;117.37;34.30;;;;;;;7.61;52.02;100922.13;5111698;27;20124;-72
2022/12/10 01:22:08;;;;;;;119.33;34.33;;;;;;;7.77;52.28;100928.28;5113231;27;20038;-72
2022/12/10 01:24:35;;;;;;;114.83;33.10;;;;;;;7.55;52.57;100928.19;5133352;27;20062;-73
2022/12/10 01:27:00;;;;;;;123.37;36.20;;;;;;;7.71;51.78;100928.25;5132102;27;20156;-71
2022/12/10 01:29:27;;;;;;;109.67;34.00;;;;;;;8.47;50.58;100932.75;5131318;27;20022;-72
2022/12/10 01:31:54;;;;;;;131.43;37.00;;;;;;;8.97;48.71;100938.81;5112697;27;20045;-72
2022/12/10 01:34:20;;;;;;;129.07;37.10;;;;;;;8.44;49.32;100932.72;5114368;27;20509;-72
2022/12/10 01:36:50;;;;;;;115.83;36.13;;;;;;;8.54;49.35;100933.63;5132341;27;20031;-72
2022/12/10 01:39:17;;;;;;;115.53;34.17;;;;;;;9.06;49.08;100934.44;5111772;27;20031;-72
2022/12/10 01:41:46;;;;;;;121.20;36.00;;;;;;;8.80;49.26;100935.34;5111269;27;20382;-73
2022/12/10 01:44:11;;;;;;;121.10;36.53;;;;;;;8.21;50.44;100940.50;5113576;27;20019;-73
2022/12/10 01:46:39;;;;;;;110.67;33.93;;;;;;;8.60;49.51;100938.84;5113422;27;20399;-72
2022/12/10 01:49:08;;;;;;;118.20;34.90;;;;;;;8.03;51.68;100940.50;5113597;27;20034;-72
2022/12/10 01:51:36;;;;;;;112.13;35.37;;;;;;;7.01;54.41;100953.06;5110195;27;20028;-71
2022/12/10 01:54:05;;;;;;;101.80;32.03;;;;;;;8.60;50.96;100949.28;5113196;27;20027;-72
2022/12/10 01:56:34;;;;;;;109.63;37.60;;;;;;;7.63;52.67;100947.28;5113142;27;20091;-71
2022/12/10 01:59:00;;;;;;;115.50;33.20;;;;;;;7.49;52.44;100956.78;5114066;27;20027;-71
2022/12/10 02:01:41;;;;;;;103.00;33.40;;;;;;;7.68;52.85;100956.84;5112250;27;20039;-71
2022/12/10 02:04:15;;;;;;;102.17;33.90;;;;;;;8.28;51.06;100942.28;5130665;27;20495;-72
2022/12/10 02:07:22;;;;;;;106.33;33.53;;;;;;;8.05;51.31;100954.38;5109995;27;20037;-72
2022/12/10 02:10:06;;;;;;;116.43;34.03;;;;;;;7.76;53.09;100953.44;5113960;27;20478;-71
2022/12/10 02:12:39;;;;;;;116.53;34.23;;;;;;;7.82;52.77;100949.97;5111266;27;20027;-72
2022/12/10 02:15:04;;;;;;;110.70;32.90;;;;;;;8.22;51.13;100942.25;5112122;27;20042;-72
2022/12/10 02:17:46;;;;;;;112.73;32.87;;;;;;;7.86;52.08;100949.13;5130386;27;20027;-71
2022/12/10 02:20:21;;;;;;;107.10;31.90;;;;;;;7.63;53.79;100957.69;5112817;27;20122;-71
2022/12/10 02:23:25;;;;;;;112.13;32.57;;;;;;;8.04;52.27;100960.47;5112795;28;20043;-71
2022/12/10 02:26:03;;;;;;;110.40;31.73;;;;;;;8.06;52.31;100950.91;5097117;28;20479;-72
2022/12/10 02:28:47;;;;;;;110.63;32.40;;;;;;;8.17;51.60;100949.19;5109338;28;20031;-71
2022/12/10 02:31:18;;;;;;;141.10;34.30;;;;;;;7.81;52.39;100956.03;5113495;28;20034;-71
2022/12/10 02:33:49;;;;;;;124.23;32.60;;;;;;;8.04;51.56;100944.84;5130899;28;20345;-72
2022/12/10 02:36:16;;;;;;;120.30;30.97;;;;;;;7.67;52.94;100955.13;5112102;28;20091;-71
2022/12/10 02:38:43;;;;;;;100.30;28.03;;;;;;;7.28;55.28;100950.63;5111829;28;20022;-72
2022/12/10 02:41:17;;;;;;;163.40;30.47;;;;;;;6.97;54.02;100955.59;5113426;28;20039;-72
2022/12/10 02:43:46;;;;;;;176.97;31.67;;;;;;;7.08;55.07;100958.28;5113604;28;20385;-71
2022/12/10 02:46:11;;;;;;;176.87;29.00;;;;;;;8.13;51.38;100944.84;5110870;28;20030;-71
2022/12/10 02:48:39;;;;;;;114.30;28.87;;;;;;;7.73;52.46;100952.53;5112643;28;20035;-71
2022/12/10 02:51:05;;;;;;;143.90;29.97;;;;;;;8.00;52.30;100948.31;5111502;28;20470;-72
2022/12/10 02:53:30;;;;;;;171.60;28.33;;;;;;;7.78;52.07;100940.44;5112490;28;20043;-72
2022/12/10 02:56:12;;;;;;;192.10;28.43;;;;;;;8.12;52.18;100950.94;5112920;28;20072;-72
2022/12/10 02:58:47;;;;;;;172.10;30.20;;;;;;;8.10;51.63;100937.03;5105526;28;20027;-72
2022/12/10 03:01:26;;;;;;;209.47;32.63;;;;;;;7.75;52.72;100950.81;5115739;27;20071;-72
2022/12/10 03:04:10;;;;;;;128.40;28.73;;;;;;;7.93;53.51;100944.81;5116639;27;20029;-71
2022/12/10 03:06:50;;;;;;;171.67;30.23;;;;;;;7.44;53.55;100945.47;5133134;27;20113;-71
2022/12/10 03:09:26;;;;;;;157.50;27.60;;;;;;;6.55;55.96;100951.84;5116424;27;20027;-71
2022/12/10 03:11:58;;;;;;;118.27;27.27;;;;;;;7.14;55.16;100947.06;5117169;27;20023;-71
2022/12/10 03:14:27;;;;;;;;;;;;;;;7.95;53.17;100938.75;5116191;27;20083;-72
2022/12/10 03:16:56;;;;;;;149.87;28.80;;;;;;;7.14;53.59;100941.84;5114825;27;20403;-72
2022/12/10 03:19:27;;;;;;;229.10;35.53;;;;;;;7.35;54.63;100940.22;5115186;27;20390;-71
2022/12/10 03:21:54;;;;;;;143.10;30.13;;;;;;;7.48;54.18;100942.03;5134920;27;20115;-71
2022/12/10 03:24:21;;;;;;;151.60;27.27;;;;;;;7.07;56.26;100935.75;5113288;27;20023;-71
2022/12/10 03:26:49;;;;;;;186.00;28.00;;;;;;;7.43;55.05;100933.34;5096469;28;20027;-71
2022/12/10 03:29:33;;;;;;;142.90;30.40;;;;;;;7.63;52.99;100933.44;5104634;27;20045;-71
2022/12/10 03:32:00;;;;;;;137.67;27.33;;;;;;;7.19;55.30;100934.97;5116995;27;20402;-71
2022/12/10 03:34:25;;;;;;;206.90;35.43;;;;;;;7.76;53.75;100926.53;5110634;27;20514;-72
2022/12/10 03:36:52;;;;;;;262.77;32.40;;;;;;;7.80;52.37;100923.97;5130792;27;20019;-72
2022/12/10 03:39:17;;;;;;;146.37;26.77;;;;;;;7.77;53.73;100923.91;5114415;27;20031;-71
2022/12/10 03:41:43;;;;;;;143.57;25.80;;;;;;;7.64;53.54;100922.16;5112522;27;20023;-72
2022/12/10 03:44:08;;;;;;;190.37;28.80;;;;;;;7.66;52.45;100923.03;5113254;27;20421;-71
2022/12/10 03:46:34;;;;;;;149.43;26.47;;;;;;;7.61;54.20;100937.75;5134199;27;20039;-71
2022/12/10 03:49:00;;;;;;;191.97;29.67;;;;;;;7.93;52.80;100934.41;5115886;27;20099;-71
2022/12/10 03:51:25;;;;;;;150.03;25.77;;;;;;;8.22;52.56;100946.59;5112877;27;20039;-71
2022/12/10 03:53:51;;;;;;;208.43;28.10;;;;;;;7.61;53.13;100943.84;5114817;27;20027;-72
2022/12/10 03:56:17;;;;;;;147.90;28.20;;;;;;;7.95;52.38;100951.75;5114563;27;20386;-72
2022/12/10 03:58:43;;;;;;;154.40;27.47;;;;;;;8.11;52.43;100949.19;5134868;27;20022;-72
2022/12/10 04:01:08;;;;;;;165.60;25.53;;;;;;;7.98;52.65;100949.16;5115197;27;20063;-71
2022/12/10 04:03:37;;;;;;;192.90;28.60;;;;;;;7.34;54.79;100949.78;5113193;27;20091;-72
2022/12/10 04:06:12;;;;;;;146.33;25.83;;;;;;;7.57;53.99;100947.28;5114553;27;20070;-71
2022/12/10 04:08:38;;;;;;;251.43;29.03;;;;;;;7.79;53.86;100943.03;5115487;27;20030;-72
2022/12/10 04:11:10;;;;;;;104.93;25.90;;;;;;;8.64;51.10;100951.00;5113693;27;20031;-72
2022/12/10 04:16:29;;;;;;;151.00;25.20;;;;;;;8.97;50.97;100953.56;5132724;27;20084;-72
2022/12/10 04:18:59;;;;;;;180.70;30.97;;;;;;;8.49;51.11;100951.00;5113724;27;20028;-72
2022/12/10 04:26:56;;;;;;;142.13;29.27;;;;;;;8.79;50.25;100944.03;5133391;27;20037;-73
2022/12/10 04:29:27;;;;;;;188.00;28.00;;;;;;;8.37;51.46;100943.16;5112847;27;20024;-72
2022/12/10 04:31:54;;;;;;;154.40;27.40;;;;;;;8.73;51.31;100949.25;5115308;27;20023;-73
2022/12/10 04:34:20;;;;;;;166.87;31.37;;;;;;;8.04;51.69;100942.25;5114119;27;20015;-71
2022/12/10 04:36:46;;;;;;;163.77;28.00;;;;;;;7.92;52.18;100943.06;5113403;27;20027;-72
2022/12/10 04:39:11;;;;;;;122.90;26.77;;;;;;;7.70;53.30;100953.41;5114972;27;20015;-72
2022/12/10 04:41:42;;;;;;;137.03;24.70;;;;;;;7.97;52.90;100947.41;5113892;27;20116;-71
2022/12/10 04:44:08;;;;;;;159.33;24.47;;;;;;;7.94;52.70;100952.63;5130294;27;20553;-72
2022/12/10 04:46:34;;;;;;;124.43;24.97;;;;;;;8.27;52.72;100957.88;5132201;27;20101;-72
2022/12/10 04:49:00;;;;;;;126.93;23.43;;;;;;;8.40;51.63;100953.56;5131010;27;20110;-72
2022/12/10 04:51:25;;;;;;;140.40;23.50;;;;;;;8.58;51.16;100956.19;5132177;27;20027;-72
2022/12/10 04:53:51;;;;;;;95.17;23.57;;;;;;;8.47;50.94;100948.38;5114917;27;20283;-72
2022/12/10 04:56:16;;;;;;;122.83;26.27;;;;;;;7.97;52.51;100952.63;5113256;27;20019;-72
2022/12/10 04:58:42;;;;;;;114.20;25.90;;;;;;;7.30;54.11;100959.28;5114622;27;20110;-72
2022/12/10 05:01:09;;;;;;;147.87;26.73;;;;;;;6.86;56.04;100954.69;5131309;27;20051;-71
2022/12/10 05:03:35;;;;;;;131.60;28.00;;;;;;;7.47;54.53;100948.97;5113746;27;20019;-72
2022/12/10 05:06:09;;;;;;;140.67;28.13;;;;;;;8.46;51.90;100948.38;5114357;27;20038;-72
2022/12/10 05:08:36;;;;;;;131.00;25.87;;;;;;;8.79;51.08;100949.25;5132931;27;20023;-71
2022/12/10 05:11:04;;;;;;;128.73;27.53;;;;;;;8.78;50.71;100944.94;5110255;27;20023;-72
2022/12/10 05:13:29;;;;;;;137.87;26.87;;;;;;;8.97;50.62;100956.19;5114277;27;20795;-72
2022/12/10 05:15:55;;;;;;;146.37;30.43;;;;;;;8.12;52.20;100961.34;5113846;27;20113;-72
2022/12/10 05:18:20;;;;;;;192.47;28.03;;;;;;;8.60;51.31;100951.00;5109973;27;20015;-73
2022/12/10 05:20:45;;;;;;;143.17;27.70;;;;;;;7.61;53.30;100956.84;5108151;27;20413;-71
2022/12/10 05:23:29;;;;;;;113.43;27.10;;;;;;;8.38;51.42;100952.69;5112058;27;20023;-72
2022/12/10 05:26:22;;;;;;;83.43;24.33;;;;;;;8.24;51.86;100944.84;5133115;27;20094;-72
2022/12/10 05:28:52;;;;;;;127.38;25.42;;;;;;;8.38;51.63;100952.69;5103249;27;20035;-72
2022/12/10 05:31:20;;;;;;;119.10;27.80;;;;;;;7.93;51.87;100945.66;5130432;27;20395;-72
2022/12/10 05:33:46;;;;;;;127.87;27.17;;;;;;;7.57;52.75;100949.88;5131654;27;20488;-72
2022/12/10 05:36:14;;;;;;;103.27;24.80;;;;;;;8.11;52.85;100954.41;5131272;27;20019;-72
2022/12/10 05:38:40;;;;;;;153.60;25.60;;;;;;;8.71;51.26;100948.38;5114432;27;20111;-72
2022/12/10 05:41:09;;;;;;;86.70;24.13;;;;;;;8.73;50.63;100949.25;5111712;27;20466;-72
2022/12/10 05:43:35;;;;;;;82.27;23.07;;;;;;;8.28;51.56;100952.69;5113783;27;20035;-72
2022/12/10 05:46:06;;;;;;;117.17;23.97;;;;;;;8.32;52.07;100959.66;5113256;27;20029;-72
2022/12/10 05:48:33;;;;;;;95.57;24.97;;;;;;;8.28;51.44;100957.91;5129831;27;20108;-72
2022/12/10 05:51:06;;;;;;;93.67;23.90;;;;;;;8.11;51.78;100944.84;5113279;27;20031;-72
2022/12/10 05:53:31;;;;;;;124.22;25.83;;;;;;;8.31;51.72;100957.91;5112827;27;20451;-72
2022/12/10 05:56:02;;;;;;;103.73;23.53;;;;;;;7.53;53.99;100958.53;5113702;27;20118;-72
2022/12/10 05:58:28;;;;;;;116.43;25.27;;;;;;;7.70;55.38;100952.53;5132614;27;20475;-71
2022/12/10 06:00:55;;;;;;;108.10;24.47;;;;;;;7.27;56.39;100964.47;5111075;27;20047;-72
2022/12/10 06:03:20;;;;;;;118.47;24.83;;;;;;;7.85;53.91;100962.13;5110476;27;20072;-72
2022/12/10 06:05:45;;;;;;;108.10;22.93;;;;;;;8.17;53.17;100958.75;5113950;27;20386;-71
2022/12/10 06:08:11;;;;;;;77.27;24.17;;;;;;;8.79;50.74;100954.47;5113892;27;20043;-73
2022/12/10 06:10:36;;;;;;;88.57;22.60;;;;;;;8.84;50.34;100952.72;5112989;27;20482;-72
2022/12/10 06:13:05;;;;;;;95.90;23.83;;;;;;;7.53;54.87;100970.66;5128759;27;20027;-72
2022/12/10 06:15:32;;;;;;;93.73;23.60;;;;;;;7.18;55.62;100969.59;5113960;27;20088;-72
2022/12/10 06:17:58;;;;;;;98.27;24.93;;;;;;;7.58;55.52;100967.25;5112312;27;20079;-72
2022/12/10 06:20:25;;;;;;;85.73;24.83;;;;;;;7.52;55.13;100975.00;5132328;27;20031;-72
2022/12/10 06:22:50;;;;;;;79.07;24.00;;;;;;;6.94;57.61;100975.53;5112463;28;20062;-73
2022/12/10 06:25:16;;;;;;;126.63;26.17;;;;;;;7.56;54.82;100973.28;5112013;28;20425;-72
2022/12/10 06:27:42;;;;;;;101.23;24.60;;;;;;;7.32;55.47;100974.03;5112658;28;20034;-72
2022/12/10 06:30:08;;;;;;;116.87;24.70;;;;;;;8.13;53.13;100971.75;5113630;28;20027;-73
2022/12/10 06:32:33;;;;;;;103.87;26.43;;;;;;;7.68;54.27;100977.66;5110201;28;20027;-73
2022/12/10 06:34:58;;;;;;;115.00;25.03;;;;;;;7.88;54.09;100989.03;5111104;28;20023;-72
2022/12/10 06:37:24;;;;;;;90.60;24.20;;;;;;;7.44;55.15;100982.75;5111842;27;20363;-72
2022/12/10 06:39:53;;;;;;;105.53;26.80;;;;;;;7.58;54.35;100985.44;5112320;28;21325;-72
2022/12/10 06:42:21;;;;;;;98.13;24.27;;;;;;;7.07;57.66;100986.88;5112337;28;20038;-72
2022/12/10 06:44:46;;;;;;;78.80;23.93;;;;;;;7.09;56.35;100991.22;5127870;27;20047;-71
2022/12/10 06:47:13;;;;;;;116.30;26.07;;;;;;;7.12;56.34;100990.38;5112500;28;20026;-71
2022/12/10 06:49:38;;;;;;;108.37;24.27;;;;;;;6.58;57.51;100998.63;5113505;28;20035;-72
2022/12/10 06:52:04;;;;;;;86.93;23.20;;;;;;;7.17;56.97;100988.69;5112655;28;20038;-72
2022/12/10 06:54:30;;;;;;;121.10;25.60;;;;;;;7.60;55.06;100986.31;5108534;28;20106;-71
2022/12/10 06:56:56;;;;;;;93.93;24.90;;;;;;;8.17;53.10;100987.38;5107414;28;20479;-72
2022/12/10 06:59:21;;;;;;;103.87;25.10;;;;;;;7.27;55.48;100993.06;5111922;28;20027;-71
2022/12/10 07:01:46;;;;;;;115.23;26.37;;;;;;;7.05;56.74;101002.47;5112348;28;20490;-72
2022/12/10 07:04:12;;;;;;;109.73;27.50;;;;;;;7.20;56.87;101008.63;5111546;28;20394;-72
2022/12/10 07:06:37;;;;;;;105.47;28.23;;;;;;;6.58;58.71;101016.81;5130346;27;20591;-72
2022/12/10 07:09:03;;;;;;;100.63;24.17;;;;;;;7.28;56.07;101007.81;5110115;28;20027;-71
2022/12/10 07:11:30;;;;;;;125.67;31.07;;;;;;;7.47;54.97;101014.00;5112286;28;20501;-72
2022/12/10 07:13:56;;;;;;;107.83;25.27;;;;;;;8.11;54.05;101011.66;5109789;28;20029;-71
2022/12/10 07:16:28;;;;;;;108.97;26.30;;;;;;;7.11;55.79;101010.28;5113060;28;20457;-72
2022/12/10 07:18:56;;;;;;;99.22;25.33;;;;;;;7.32;55.60;101010.44;5109634;28;20027;-71
2022/12/10 07:21:32;;;;;;;110.27;24.20;;;;;;;7.28;56.07;101018.22;5111412;28;20642;-71
2022/12/10 07:24:04;;;;;;;78.00;22.83;;;;;;;7.54;55.29;101014.91;5113222;28;20493;-71
2022/12/10 07:26:32;;;;;;;105.53;26.57;;;;;;;7.59;55.16;101014.94;5128706;27;20478;-72
2022/12/10 07:28:58;;;;;;;109.00;26.30;;;;;;;7.95;53.82;101015.94;5110442;28;20023;-71
2022/12/10 07:31:23;;;;;;;96.07;25.30;;;;;;;7.94;53.16;101015.09;5112976;28;20047;-71
2022/12/10 07:33:51;;;;;;;106.93;24.63;;;;;;;7.67;53.91;101021.03;5112551;28;20015;-72
2022/12/10 07:36:16;;;;;;;125.20;27.30;;;;;;;7.75;54.09;101024.56;5110245;28;20023;-71
2022/12/10 07:38:42;;;;;;;107.47;25.63;;;;;;;8.11;53.37;101022.09;5124276;28;20022;-71
2022/12/10 07:41:10;;;;;;;97.30;24.80;;;;;;;6.84;57.11;101021.38;5108290;27;20564;-72
2022/12/10 07:43:38;;;;;;;112.40;25.80;;;;;;;7.04;57.47;101028.44;5112072;27;20035;-71
2022/12/10 07:46:10;;;;;;;136.63;27.83;;;;;;;7.05;57.10;101025.00;5115629;27;20027;-71
2022/12/10 07:48:37;;;;;;;134.20;25.83;;;;;;;7.36;56.35;101020.00;5114043;27;20567;-71
2022/12/10 07:51:02;;;;;;;95.80;24.53;;;;;;;6.88;55.84;101017.94;5114957;27;20148;-71
2022/12/10 07:53:28;;;;;;;86.40;24.67;;;;;;;7.61;55.67;101016.69;5116683;27;20109;-71
2022/12/10 07:55:53;;;;;;;110.17;25.23;;;;;;;7.17;55.39;101030.28;5114731;27;20030;-71
2022/12/10 07:58:19;;;;;;;109.30;25.53;;;;;;;6.67;58.20;101033.34;5133864;27;20031;-71
2022/12/10 08:00:44;;;;;;;119.60;25.87;;;;;;;7.05;56.99;101025.00;5115621;27;20040;-71
2022/12/10 08:03:10;;;;;;;106.77;26.07;;;;;;;7.05;57.07;101027.59;5114065;27;20094;-71
2022/12/10 08:05:35;;;;;;;105.30;23.90;;;;;;;6.30;58.13;101048.53;5111628;27;20051;-71
2022/12/10 08:08:01;;;;;;;94.37;23.13;;;;;;;7.37;56.63;101039.94;5115538;27;20202;-71
2022/12/10 08:10:26;;;;;;;86.33;24.67;;;;;;;6.97;58.08;101036.19;5128642;27;20162;-72
2022/12/10 08:12:51;;;;;;;94.47;25.07;;;;;;;6.49;57.78;101045.28;5134833;27;20077;-71
2022/12/10 08:15:17;;;;;;;100.33;25.43;;;;;;;7.52;55.46;101047.84;5112953;27;20023;-71
2022/12/10 08:17:42;;;;;;;95.83;23.10;;;;;;;6.90;56.58;101047.41;5112836;27;20046;-71
2022/12/10 08:20:08;;;;;;;97.17;24.87;;;;;;;6.78;58.48;101047.28;5115687;27;20038;-71
2022/12/10 08:22:35;;;;;;;105.77;23.83;;;;;;;6.84;57.13;101060.34;5114290;27;20031;-71
2022/12/10 08:25:00;;;;;;;90.27;23.57;;;;;;;7.52;56.08;101058.25;5114159;27;20138;-71
2022/12/10 08:27:26;;;;;;;121.33;25.00;;;;;;;6.88;55.69;101063.81;5115936;27;20418;-71
2022/12/10 08:29:51;;;;;;;113.97;27.13;;;;;;;7.13;55.53;101057.13;5115499;27;20368;-72
2022/12/10 08:32:16;;;;;;;101.73;23.23;;;;;;;7.95;53.66;101071.50;5109267;27;20022;-71
2022/12/10 08:34:42;;;;;;;98.23;25.00;;;;;;;7.97;53.08;101074.97;5132806;27;20027;-71
2022/12/10 08:37:10;;;;;;;113.43;24.63;;;;;;;7.34;54.65;101073.75;5111880;27;20119;-71
2022/12/10 08:39:36;;;;;;;95.73;24.30;;;;;;;7.28;55.74;101070.22;5115563;27;20517;-71
2022/12/10 08:42:01;;;;;;;92.83;24.53;;;;;;;7.96;53.13;101065.41;5099750;27;20035;-72
2022/12/10 08:44:27;;;;;;;97.13;23.30;;;;;;;7.15;55.42;101076.19;5105426;27;20111;-73
2022/12/10 08:46:52;;;;;;;100.63;23.83;;;;;;;7.21;56.01;101075.34;5115005;27;20602;-72
2022/12/10 08:49:17;;;;;;;119.63;24.60;;;;;;;7.50;54.61;101080.78;5112832;27;20027;-71
2022/12/10 08:51:43;;;;;;;114.63;23.93;;;;;;;5.71;59.78;101094.47;5111232;27;20421;-72
2022/12/10 08:54:08;;;;;;;127.07;23.90;;;;;;;5.76;60.22;101092.81;5114024;27;20027;-72
2022/12/10 08:56:34;;;;;;;124.40;23.10;;;;;;;5.58;61.86;101089.13;5112946;27;20034;-71
2022/12/10 08:59:00;;;;;;;114.40;24.80;;;;;;;5.70;60.77;101087.53;5131996;27;20018;-71
2022/12/10 09:01:25;;;;;;;117.47;25.53;;;;;;;6.28;60.19;101098.72;5131283;27;20053;-71
2022/12/10 09:03:51;;;;;;;87.20;23.83;;;;;;;6.62;58.35;101098.22;5115171;27;20478;-72
2022/12/10 09:06:19;;;;;;;99.07;23.83;;;;;;;6.54;58.24;101090.34;5132765;27;20027;-70
2022/12/10 09:08:45;;;;;;;73.17;22.87;;;;;;;6.74;57.21;101084.50;5112495;27;20697;-70
2022/12/10 09:11:16;;;;;;;78.93;24.20;;;;;;;7.42;55.74;101087.66;5114360;27;20486;-70
2022/12/10 09:13:43;;;;;;;118.18;27.52;;;;;;;6.45;57.21;101091.09;5113306;27;20452;-71
2022/12/10 09:16:09;;;;;;;95.80;25.87;;;;;;;7.26;56.55;101082.34;5114735;27;20027;-71
2022/12/10 09:18:34;;;;;;;116.00;25.00;;;;;;;6.60;57.30;101090.41;5112258;27;20023;-71
2022/12/10 09:21:02;;;;;;;104.53;26.00;;;;;;;5.78;58.94;101096.31;5127898;27;20087;-72
2022/12/10 09:23:27;;;;;;;99.93;24.37;;;;;;;5.98;59.19;101099.22;5113264;27;20027;-72
2022/12/10 09:25:52;;;;;;;90.50;25.57;;;;;;;6.59;57.98;101098.19;5114635;27;20389;-72
2022/12/10 09:28:18;;;;;;;88.40;24.73;;;;;;;6.61;58.96;101107.75;5111180;27;20148;-72
2022/12/10 09:30:43;;;;;;;101.00;24.77;;;;;;;6.17;59.38;101099.44;5113712;27;20293;-72
2022/12/10 09:33:08;;;;;;;80.77;24.87;;;;;;;6.49;58.69;101101.56;5110414;27;20035;-71
2022/12/10 09:35:34;;;;;;;88.27;26.23;;;;;;;7.56;55.06;101106.81;5113420;27;20037;-71
2022/12/10 09:37:59;;;;;;;93.17;24.60;;;;;;;8.03;53.83;101102.75;5110886;27;20015;-71
2022/12/10 09:40:36;;;;;;;100.10;25.27;;;;;;;6.45;59.05;101117.06;5112873;27;20470;-72
2022/12/10 09:43:23;;;;;;;98.23;25.37;;;;;;;6.30;60.09;101118.63;5131587;27;20103;-71
2022/12/10 09:46:07;;;;;;;118.63;25.83;;;;;;;6.79;57.70;101111.41;5113243;27;20470;-72
2022/12/10 09:48:59;;;;;;;101.70;25.47;;;;;;;7.07;56.78;101111.66;5106680;27;20124;-71
2022/12/10 09:51:29;;;;;;;108.07;28.87;;;;;;;6.85;56.26;101121.84;5111570;27;20447;-71
2022/12/10 09:53:59;;;;;;;98.07;26.53;;;;;;;6.88;56.54;101115.78;5113039;27;20096;-71
2022/12/10 09:56:39;;;;;;;96.17;26.23;;;;;;;7.34;55.85;101115.34;5109097;27;20118;-72
2022/12/10 09:59:19;;;;;;;97.27;27.50;;;;;;;7.23;54.32;101123.06;5127700;27;20054;-71
2022/12/10 10:01:49;;;;;;;104.07;26.73;;;;;;;6.67;56.05;101134.66;5113187;27;20065;-71
2022/12/10 10:04:14;;;;;;;90.93;24.87;;;;;;;6.31;58.12;101130.78;5110011;27;20039;-71
2022/12/10 10:06:40;;;;;;;100.27;26.23;;;;;;;6.56;57.96;101137.97;5112051;27;20022;-71
2022/12/10 10:09:09;;;;;;;113.53;26.10;;;;;;;6.81;57.23;101125.25;5110684;27;20024;-71
2022/12/10 10:11:35;;;;;;;102.07;27.37;;;;;;;7.08;56.43;101118.59;5131663;27;20128;-72
2022/12/10 10:14:22;;;;;;;99.67;27.53;;;;;;;6.10;59.61;101129.66;5112974;27;20136;-71
2022/12/10 10:16:52;;;;;;;84.30;25.93;;;;;;;6.51;57.90;101126.69;5131305;27;20035;-71
2022/12/10 10:19:23;;;;;;;89.93;26.60;;;;;;;6.48;58.43;101131.81;5111074;27;20024;-71
2022/12/10 10:21:50;;;;;;;99.03;27.77;;;;;;;6.95;56.33;101128.88;5112839;27;20054;-72
2022/12/10 10:24:19;;;;;;;90.83;26.87;;;;;;;7.25;55.30;101126.53;5120039;27;20087;-71
2022/12/10 10:26:45;;;;;;;94.40;27.77;;;;;;;7.39;55.07;101131.84;5105840;28;20023;-71
2022/12/10 10:29:13;;;;;;;112.03;29.83;;;;;;;7.33;55.78;101130.06;5114128;27;20409;-72
2022/12/10 10:31:41;;;;;;;88.43;26.60;;;;;;;7.56;55.60;101122.44;5094904;28;20038;-71
2022/12/10 10:34:22;;;;;;;106.00;28.17;;;;;;;7.07;56.34;101129.84;5104762;28;20478;-72
2022/12/10 10:36:56;;;;;;;92.27;26.37;;;;;;;6.70;56.26;101132.94;5111188;28;20398;-71
2022/12/10 10:39:30;;;;;;;97.83;27.73;;;;;;;6.68;58.14;101139.84;5129883;28;20023;-71
2022/12/10 10:41:57;;;;;;;91.47;26.30;;;;;;;7.58;55.13;101119.84;5101066;28;20847;-71
2022/12/10 10:44:26;;;;;;;100.53;28.80;;;;;;;6.85;57.29;101132.22;5102351;28;20034;-72
2022/12/10 10:46:54;;;;;;;107.07;28.47;;;;;;;6.43;57.55;101130.94;5112218;28;20037;-71
2022/12/10 10:49:34;;;;;;;121.30;31.57;;;;;;;7.37;57.18;101124.03;5112637;28;20451;-72
2022/12/10 10:52:05;;;;;;;120.13;32.53;;;;;;;7.08;57.65;101129.00;5111743;28;20072;-70
2022/12/10 10:54:36;;;;;;;113.57;27.30;;;;;;;7.37;56.16;101130.97;5111486;28;20027;-71
2022/12/10 10:57:36;;;;;;;102.17;25.67;;;;;;;6.92;57.81;101123.66;5113468;28;20148;-71
2022/12/10 11:00:07;;;;;;;98.83;26.97;;;;;;;7.10;56.50;101122.06;5105559;28;20042;-71
2022/12/10 11:02:37;;;;;;;114.27;29.10;;;;;;;6.77;57.44;101123.47;5113405;28;20034;-71
2022/12/10 11:05:29;;;;;;;107.30;28.90;;;;;;;7.95;54.65;101115.75;5111409;28;20070;-70
2022/12/10 11:08:23;;;;;;;137.43;33.25;;;;;;;8.18;53.22;101117.59;5113201;28;20015;-72
2022/12/10 11:10:55;;;;;;;148.27;35.53;;;;;;;7.54;54.17;101124.19;5092901;28;20064;-71
2022/12/10 11:13:29;;;;;;;;;;;;;;;7.63;55.64;101124.22;5092709;28;20027;-72
2022/12/10 11:16:00;;;;;;;;;;;;;;;6.73;57.62;101135.59;5093255;28;19912;-71
2022/12/10 11:18:36;;;;;;;136.60;31.93;;;;;;;7.99;54.44;101127.03;5103140;27;20264;-70
2022/12/10 11:21:16;;;;;;;139.50;31.83;;;;;;;7.36;55.96;101121.41;5104334;27;20027;-70
2022/12/10 11:23:46;;;;;;;161.27;32.93;;;;;;;7.04;57.00;101122.03;5112324;27;20478;-70
2022/12/10 11:26:23;;;;;;;140.03;33.87;;;;;;;6.55;58.01;101138.84;5112207;27;20501;-70
2022/12/10 11:29:31;;;;;;;147.60;35.20;;;;;;;6.79;58.13;101137.38;5112867;27;20505;-70